Time;durP1;ratioP1;P1;durP2;ratioP2;P2;SDS_P1;SDS_P2;PMS_P1;PMS_P2;Temp;Humidity;BMP_temperature;BMP_pressure;BME280_temperature;BME280_humidity;BME280_pressure;Samples;Min_cycle;Max_cycle;Signal;HPM_P1;HPM_P2
2021/09/23 00:01:09;;;;;;;48.20;22.50;;;;;;;13.71;100.00;102150.38;5086144;28;20157;-62
2021/09/23 00:06:03;;;;;;;41.60;21.90;;;;;;;13.72;100.00;102145.84;5082626;28;20044;-61
2021/09/23 00:08:29;;;;;;;42.97;23.15;;;;;;;13.67;100.00;102145.59;5079201;28;20329;-62
2021/09/23 00:10:55;;;;;;;42.58;23.73;;;;;;;13.72;100.00;102143.16;5090061;28;20060;-62
2021/09/23 00:13:23;;;;;;;46.72;25.23;;;;;;;13.71;100.00;102154.94;5068380;28;20409;-63
2021/09/23 00:15:50;;;;;;;48.23;26.53;;;;;;;13.71;100.00;102145.00;5084406;28;20110;-62
2021/09/23 00:18:17;;;;;;;49.03;26.63;;;;;;;13.83;100.00;102163.38;5083776;28;20360;-62
2021/09/23 00:20:47;;;;;;;46.07;28.07;;;;;;;13.82;100.00;102161.72;5065006;28;20295;-62
2021/09/23 00:23:14;;;;;;;42.87;24.73;;;;;;;13.76;100.00;102155.22;5088444;28;20286;-63
2021/09/23 00:25:40;;;;;;;37.87;20.37;;;;;;;13.66;100.00;102143.91;5083444;28;20273;-63
2021/09/23 00:28:07;;;;;;;40.42;20.23;;;;;;;13.59;100.00;102141.94;5089455;28;20768;-62
2021/09/23 00:30:34;;;;;;;35.43;17.80;;;;;;;13.58;100.00;102140.28;5094535;28;20062;-62
2021/09/23 00:32:59;;;;;;;33.75;19.25;;;;;;;13.60;100.00;102140.91;5092706;28;20269;-62
2021/09/23 00:35:25;;;;;;;34.00;17.88;;;;;;;13.56;100.00;102139.63;5076022;28;20217;-63
2021/09/23 00:37:52;;;;;;;34.97;17.63;;;;;;;13.50;100.00;102140.34;5076201;28;20043;-63
2021/09/23 00:40:18;;;;;;;;;;;;;;;13.56;100.00;102141.50;5082455;28;20044;-62
2021/09/23 00:42:47;;;;;;;33.10;18.83;;;;;;;13.50;100.00;102136.84;5063519;28;20353;-62
2021/09/23 00:45:13;;;;;;;38.73;19.73;;;;;;;13.54;100.00;102130.91;5063667;28;20081;-62
2021/09/23 00:47:39;;;;;;;;;;;;;;;13.52;100.00;102132.13;5063033;28;20273;-62
2021/09/23 00:50:07;;;;;;;34.57;18.87;;;;;;;13.47;100.00;102121.91;5056409;28;20375;-62
2021/09/23 00:52:35;;;;;;;38.10;18.93;;;;;;;13.42;100.00;102116.25;5065431;28;20032;-61
2021/09/23 00:55:03;;;;;;;44.43;19.83;;;;;;;13.41;100.00;102111.88;5069015;28;20290;-62
2021/09/23 00:57:28;;;;;;;38.17;20.30;;;;;;;13.38;100.00;102107.69;5066360;28;20291;-62
2021/09/23 00:59:56;;;;;;;42.70;21.50;;;;;;;13.40;100.00;102104.84;5048763;28;20264;-61
2021/09/23 01:02:23;;;;;;;47.27;21.80;;;;;;;13.48;100.00;102112.84;5049884;28;20038;-62
2021/09/23 01:04:52;;;;;;;43.00;24.60;;;;;;;13.42;100.00;102108.16;5075695;28;20264;-63
2021/09/23 01:07:20;;;;;;;48.40;25.93;;;;;;;13.41;100.00;102106.50;5075328;28;20285;-63
2021/09/23 01:09:49;;;;;;;41.40;21.33;;;;;;;13.45;100.00;102105.97;5093263;28;20265;-63
2021/09/23 01:12:17;;;;;;;45.00;23.33;;;;;;;13.46;100.00;102101.44;5075512;28;20679;-63
2021/09/23 01:14:43;;;;;;;43.57;21.17;;;;;;;13.31;100.00;102090.66;5093778;28;20263;-63
2021/09/23 01:17:10;;;;;;;45.97;19.67;;;;;;;13.32;100.00;102093.13;5058766;28;20636;-63
2021/09/23 01:19:40;;;;;;;37.67;18.17;;;;;;;13.25;100.00;102084.16;5075493;28;20735;-63
2021/09/23 01:22:06;;;;;;;35.30;17.97;;;;;;;13.32;100.00;102085.06;5058941;28;20778;-63
2021/09/23 01:24:52;;;;;;;36.27;18.13;;;;;;;13.22;100.00;102076.47;5093213;28;20261;-62
2021/09/23 01:27:18;;;;;;;33.67;18.33;;;;;;;13.27;100.00;102074.03;5075158;28;20826;-62
2021/09/23 01:29:45;;;;;;;31.47;17.73;;;;;;;13.24;100.00;102077.09;5075441;28;20032;-63
2021/09/23 01:32:12;;;;;;;37.33;18.03;;;;;;;13.15;100.00;102073.66;5032652;28;20819;-59
2021/09/23 01:34:40;;;;;;;36.97;17.67;;;;;;;13.15;100.00;102070.16;5034147;28;20270;-63
2021/09/23 01:37:06;;;;;;;33.10;18.00;;;;;;;13.08;100.00;102059.31;5050256;28;20716;-62
2021/09/23 01:39:36;;;;;;;35.67;18.40;;;;;;;13.11;100.00;102063.44;5050034;28;20033;-63
2021/09/23 01:42:10;;;;;;;33.42;18.30;;;;;;;13.01;100.00;102047.59;5034059;28;20365;-63
2021/09/23 01:44:36;;;;;;;38.35;18.00;;;;;;;13.00;100.00;102052.16;5050298;28;20155;-62
2021/09/23 01:47:04;;;;;;;37.70;19.53;;;;;;;12.89;100.00;102056.09;5033032;28;20060;-61
2021/09/23 01:49:35;;;;;;;33.87;19.40;;;;;;;12.88;100.00;102051.75;5033699;28;20290;-62
2021/09/23 01:52:01;;;;;;;40.47;19.02;;;;;;;12.86;100.00;102058.31;5017715;28;20282;-63
2021/09/23 01:54:27;;;;;;;42.47;19.25;;;;;;;12.85;100.00;102053.94;5061768;28;20037;-64
2021/09/23 01:56:54;;;;;;;35.53;18.97;;;;;;;12.74;100.00;102042.63;5038043;28;20192;-62
2021/09/23 01:59:23;;;;;;;36.73;18.73;;;;;;;12.79;100.00;102049.31;5057269;28;20352;-62
2021/09/23 02:01:50;;;;;;;31.23;17.33;;;;;;;12.79;100.00;102054.69;5052312;28;20367;-61
2021/09/23 02:04:16;;;;;;;37.92;17.85;;;;;;;12.74;100.00;102056.06;5053355;28;20273;-60
2021/09/23 02:06:45;;;;;;;34.80;18.20;;;;;;;12.64;100.00;102042.03;5070309;28;20051;-62
2021/09/23 02:09:11;;;;;;;34.67;19.52;;;;;;;12.71;100.00;102037.63;5073006;28;20360;-62
2021/09/23 02:11:37;;;;;;;43.80;19.30;;;;;;;12.72;100.00;102033.94;5092759;28;20056;-61
2021/09/23 02:14:03;;;;;;;37.00;18.20;;;;;;;12.68;100.00;102035.28;5075165;28;20467;-63
2021/09/23 02:16:29;;;;;;;44.28;19.33;;;;;;;12.71;100.00;102036.78;5074670;28;20074;-64
2021/09/23 02:18:58;;;;;;;38.00;18.90;;;;;;;12.64;100.00;102035.84;5075242;28;20036;-63
2021/09/23 02:21:24;;;;;;;33.65;18.30;;;;;;;12.64;100.00;102022.44;5085111;28;20291;-63
2021/09/23 02:23:51;;;;;;;34.78;19.13;;;;;;;12.62;100.00;102017.22;5049879;28;20051;-63
2021/09/23 02:26:17;;;;;;;;;;;;;;;12.63;100.00;102002.78;5078840;28;20365;-63
2021/09/23 02:28:42;;;;;;;34.93;19.40;;;;;;;12.55;100.00;101995.63;5075050;28;19920;-64
2021/09/23 02:31:08;;;;;;;38.27;19.60;;;;;;;12.55;100.00;101989.44;5042317;28;20400;-62
2021/09/23 02:33:33;;;;;;;40.50;20.40;;;;;;;12.53;100.00;101986.94;5041871;28;20078;-63
2021/09/23 02:36:00;;;;;;;47.67;19.77;;;;;;;12.51;100.00;101972.06;5058661;28;20036;-62
2021/09/23 02:38:26;;;;;;;43.47;19.70;;;;;;;12.47;100.00;101959.00;5075970;28;20047;-63
2021/09/23 02:40:52;;;;;;;39.20;20.95;;;;;;;12.52;100.00;101963.00;5076509;28;20036;-62
2021/09/23 02:43:17;;;;;;;41.63;20.50;;;;;;;12.46;100.00;101968.06;5058835;28;20472;-63
2021/09/23 02:45:43;;;;;;;38.55;20.05;;;;;;;12.46;100.00;101970.75;5057838;28;20460;-62
2021/09/23 02:48:08;;;;;;;39.03;19.95;;;;;;;12.45;100.00;101968.22;5056810;28;20044;-62
2021/09/23 02:50:34;;;;;;;38.05;18.45;;;;;;;12.33;100.00;101939.13;5057771;28;20435;-63
2021/09/23 02:52:59;;;;;;;40.17;20.47;;;;;;;12.36;100.00;101931.78;5058203;28;20431;-63
2021/09/23 02:55:25;;;;;;;35.37;19.37;;;;;;;12.36;100.00;101921.84;5058159;28;20124;-63
2021/09/23 02:57:52;;;;;;;37.15;19.75;;;;;;;12.35;100.00;101930.09;5075805;28;20108;-63
2021/09/23 03:00:18;;;;;;;39.70;20.03;;;;;;;12.40;100.00;101933.06;5058055;28;20127;-63
2021/09/23 03:02:44;;;;;;;38.00;19.57;;;;;;;12.36;100.00;101935.28;5057833;28;20791;-63
2021/09/23 03:05:11;;;;;;;37.85;18.88;;;;;;;12.38;100.00;101935.09;5057964;28;20816;-62
2021/09/23 03:07:36;;;;;;;37.72;19.35;;;;;;;12.33;100.00;101938.31;5057935;28;20160;-62
2021/09/23 03:10:04;;;;;;;42.53;21.10;;;;;;;12.27;100.00;101933.69;5057935;28;20135;-64
2021/09/23 03:12:29;;;;;;;43.00;21.37;;;;;;;12.27;100.00;101933.69;5057682;28;20021;-62
2021/09/23 03:14:55;;;;;;;39.87;19.37;;;;;;;12.23;100.00;101932.38;5076114;28;20744;-62
2021/09/23 03:17:20;;;;;;;40.57;20.30;;;;;;;12.18;100.00;101932.91;5056546;28;20052;-61
2021/09/23 03:19:46;;;;;;;45.63;19.37;;;;;;;12.21;100.00;101927.19;5057208;28;20281;-63
2021/09/23 03:22:11;;;;;;;41.80;21.20;;;;;;;12.26;100.00;101921.28;5068770;28;20295;-63
2021/09/23 03:24:37;;;;;;;39.72;21.25;;;;;;;12.25;100.00;101906.22;5077294;28;20044;-62
2021/09/23 03:27:03;;;;;;;36.57;21.47;;;;;;;12.18;100.00;101912.28;5077629;28;20040;-63
2021/09/23 03:29:28;;;;;;;42.42;20.80;;;;;;;12.18;100.00;101909.59;5095333;28;20353;-63
2021/09/23 03:31:54;;;;;;;42.00;21.35;;;;;;;12.19;100.00;101919.31;5076292;28;20032;-62
2021/09/23 03:34:19;;;;;;;45.95;23.33;;;;;;;12.13;100.00;101914.66;5094725;28;20480;-63
2021/09/23 03:36:45;;;;;;;45.10;21.97;;;;;;;12.14;100.00;101910.16;5076008;28;20073;-62
2021/09/23 03:39:13;;;;;;;46.80;22.10;;;;;;;12.17;100.00;101913.28;5077177;28;20360;-62
2021/09/23 03:41:38;;;;;;;46.75;22.20;;;;;;;12.12;100.00;101909.50;5076966;28;20487;-62
2021/09/23 03:44:04;;;;;;;48.57;22.13;;;;;;;12.12;100.00;101910.31;5077282;28;20060;-63
2021/09/23 03:46:32;;;;;;;44.75;21.90;;;;;;;12.07;100.00;101901.13;5076180;28;20279;-61
2021/09/23 03:48:58;;;;;;;43.20;22.77;;;;;;;12.09;100.00;101905.31;5095022;28;20062;-63
2021/09/23 03:51:23;;;;;;;41.33;22.20;;;;;;;12.01;100.00;101910.75;5060389;28;20257;-63
2021/09/23 03:53:49;;;;;;;43.08;22.25;;;;;;;12.05;100.00;101909.38;5077197;28;20170;-62
2021/09/23 03:56:15;;;;;;;44.88;22.67;;;;;;;12.01;100.00;101911.56;5076825;28;20071;-63
2021/09/23 03:58:44;;;;;;;46.93;24.47;;;;;;;11.96;100.00;101911.25;5076842;28;20131;-62
2021/09/23 04:01:10;;;;;;;47.85;23.48;;;;;;;11.96;100.00;101915.75;5076782;28;20874;-63
2021/09/23 04:03:37;;;;;;;44.92;23.63;;;;;;;11.93;100.00;101925.00;5043565;28;20509;-62
2021/09/23 04:06:02;;;;;;;46.25;23.15;;;;;;;11.91;100.00;101925.16;5094945;28;20044;-63
2021/09/23 04:08:28;;;;;;;51.38;24.63;;;;;;;11.90;100.00;101920.00;5043807;28;20050;-63
2021/09/23 04:10:55;;;;;;;55.42;25.00;;;;;;;11.90;100.00;101923.50;5076963;28;20078;-63
2021/09/23 04:13:21;;;;;;;50.53;23.88;;;;;;;11.86;100.00;101930.25;5076927;28;20079;-63
2021/09/23 04:15:50;;;;;;;48.13;24.08;;;;;;;11.85;100.00;101931.25;5076460;28;20059;-62
2021/09/23 04:18:17;;;;;;;52.78;24.88;;;;;;;11.83;100.00;101921.72;5075134;28;20131;-63
2021/09/23 04:20:45;;;;;;;48.90;25.67;;;;;;;11.76;100.00;101918.88;5059656;28;20040;-62
2021/09/23 04:23:11;;;;;;;45.85;23.60;;;;;;;11.71;100.00;101908.72;5076853;28;20189;-63
2021/09/23 04:25:37;;;;;;;51.35;25.90;;;;;;;11.75;100.00;101917.22;5076344;28;20447;-62
2021/09/23 04:28:02;;;;;;;51.30;25.52;;;;;;;11.69;100.00;101901.88;5057591;28;20143;-61
2021/09/23 04:30:28;;;;;;;47.42;24.90;;;;;;;11.77;100.00;101896.47;5064669;28;20066;-62
2021/09/23 04:32:54;;;;;;;49.47;26.25;;;;;;;11.76;100.00;101905.50;5064532;28;20074;-63
2021/09/23 04:35:19;;;;;;;48.40;24.50;;;;;;;11.76;100.00;101906.34;5066142;28;20036;-62
2021/09/23 04:37:45;;;;;;;46.20;23.35;;;;;;;11.72;100.00;101914.91;5064170;28;20113;-63
2021/09/23 04:40:12;;;;;;;;;;;;;;;11.77;100.00;101904.50;5047227;28;20052;-62
2021/09/23 04:42:43;;;;;;;49.23;25.63;;;;;;;11.72;100.00;101893.47;5066341;28;20275;-62
2021/09/23 04:45:10;;;;;;;49.77;24.77;;;;;;;11.73;100.00;101890.63;5066624;28;20383;-61
2021/09/23 04:47:42;;;;;;;54.50;25.07;;;;;;;11.74;100.00;101888.75;5067005;28;20261;-63
2021/09/23 04:50:08;;;;;;;50.10;26.52;;;;;;;11.75;100.00;101877.88;5084458;28;20609;-63
2021/09/23 04:52:34;;;;;;;;;;;;;;;11.73;100.00;101873.69;5065548;28;20469;-61
2021/09/23 04:55:00;;;;;;;57.03;27.27;;;;;;;11.75;100.00;101871.66;5065774;28;19916;-63
2021/09/23 04:57:27;;;;;;;58.75;28.98;;;;;;;11.79;100.00;101859.59;5049394;28;20021;-64
2021/09/23 04:59:59;;;;;;;49.58;26.60;;;;;;;11.81;100.00;101854.91;5044101;28;20051;-62
2021/09/23 05:02:24;;;;;;;46.90;25.25;;;;;;;11.82;100.00;101859.25;5065701;28;20396;-62
2021/09/23 05:04:50;;;;;;;54.40;28.23;;;;;;;11.82;100.00;101853.88;5065613;28;20064;-62
2021/09/23 05:07:16;;;;;;;51.15;26.83;;;;;;;11.85;100.00;101855.34;5071288;28;20063;-62
2021/09/23 05:09:43;;;;;;;57.00;28.58;;;;;;;11.96;100.00;101856.78;5075679;28;20043;-61
2021/09/23 05:12:10;;;;;;;50.25;27.58;;;;;;;11.84;100.00;101843.81;5059546;28;20051;-62
2021/09/23 05:14:35;;;;;;;51.17;27.50;;;;;;;11.79;100.00;101829.28;5075819;28;20480;-62
2021/09/23 05:17:01;;;;;;;55.47;27.30;;;;;;;11.76;100.00;101827.78;5059015;28;20036;-62
2021/09/23 05:19:27;;;;;;;52.55;28.08;;;;;;;11.75;100.00;101826.09;5093646;28;20032;-63
2021/09/23 05:21:52;;;;;;;56.17;28.60;;;;;;;11.81;100.00;101827.25;5092980;28;20388;-61
2021/09/23 05:24:20;;;;;;;54.22;28.02;;;;;;;11.81;100.00;101833.47;5093455;28;20593;-62
2021/09/23 05:26:46;;;;;;;58.45;30.73;;;;;;;11.80;100.00;101842.50;5093592;28;20123;-62
2021/09/23 05:29:11;;;;;;;57.33;29.35;;;;;;;11.79;100.00;101835.47;5093348;28;20058;-62
2021/09/23 05:31:37;;;;;;;50.38;27.98;;;;;;;11.80;100.00;101830.94;5083957;28;20037;-63
2021/09/23 05:34:03;;;;;;;53.77;28.73;;;;;;;11.78;100.00;101833.81;5081726;28;20032;-63
2021/09/23 05:36:29;;;;;;;55.50;30.07;;;;;;;11.78;100.00;101831.13;5065692;28;20266;-63
2021/09/23 05:38:59;;;;;;;58.53;28.48;;;;;;;11.81;100.00;101824.56;5055038;28;20814;-62
2021/09/23 05:41:28;;;;;;;61.97;31.42;;;;;;;11.83;100.00;101815.34;5078528;28;20033;-63
2021/09/23 05:43:53;;;;;;;61.87;31.73;;;;;;;11.81;100.00;101822.72;5055029;28;20036;-62
2021/09/23 05:46:19;;;;;;;64.60;31.10;;;;;;;11.87;100.00;101818.47;5077768;28;20748;-61
2021/09/23 05:48:44;;;;;;;63.38;32.92;;;;;;;11.86;100.00;101814.97;5061599;28;20609;-61
2021/09/23 05:51:10;;;;;;;65.07;32.90;;;;;;;11.86;100.00;101808.78;5048925;28;20036;-64
2021/09/23 05:53:35;;;;;;;62.63;32.67;;;;;;;11.91;100.00;101811.78;5056567;28;20098;-62
2021/09/23 05:56:01;;;;;;;66.05;34.03;;;;;;;11.94;100.00;101805.19;5069717;28;20123;-62
2021/09/23 05:58:27;;;;;;;59.63;31.35;;;;;;;11.98;100.00;101806.50;5069418;28;20037;-62
2021/09/23 06:00:52;;;;;;;60.57;32.27;;;;;;;12.00;100.00;101813.34;5068992;28;20476;-62
2021/09/23 06:03:17;;;;;;;61.10;35.17;;;;;;;12.06;100.00;101814.53;5073036;28;20036;-62
2021/09/23 06:05:43;;;;;;;66.07;34.63;;;;;;;12.00;100.00;101820.59;5088587;28;20101;-61
2021/09/23 06:08:09;;;;;;;66.85;34.95;;;;;;;12.05;100.00;101799.44;5074816;28;20456;-61
2021/09/23 06:10:34;;;;;;;68.57;36.00;;;;;;;12.04;100.00;101795.91;5075085;28;20044;-62
2021/09/23 06:13:00;;;;;;;69.97;35.15;;;;;;;12.19;100.00;101798.63;5082975;28;20509;-62
2021/09/23 06:15:27;;;;;;;66.00;35.53;;;;;;;12.17;100.00;101807.88;5083375;28;20093;-62
2021/09/23 06:17:52;;;;;;;70.43;34.73;;;;;;;12.21;100.00;101813.69;5075051;28;20075;-63
2021/09/23 06:20:18;;;;;;;79.68;36.95;;;;;;;12.24;100.00;101816.03;5075012;28;20304;-62
2021/09/23 06:22:44;;;;;;;71.13;34.67;;;;;;;12.27;100.00;101826.41;5074511;28;20086;-62
2021/09/23 06:25:10;;;;;;;70.78;36.83;;;;;;;12.31;100.00;101812.41;5055323;28;20098;-63
2021/09/23 06:27:36;;;;;;;76.53;38.03;;;;;;;12.33;100.00;101812.25;5077062;28;20569;-62
2021/09/23 06:30:03;;;;;;;74.90;37.03;;;;;;;12.47;100.00;101808.75;5072054;28;20033;-62
2021/09/23 06:32:29;;;;;;;70.77;35.97;;;;;;;12.53;100.00;101809.03;5071519;28;20127;-62
2021/09/23 06:34:55;;;;;;;66.30;36.58;;;;;;;12.55;100.00;101826.59;5057781;28;20280;-62
2021/09/23 06:37:20;;;;;;;77.30;38.88;;;;;;;12.58;100.00;101825.41;5085295;28;20477;-62
2021/09/23 06:39:46;;;;;;;68.45;36.22;;;;;;;12.68;100.00;101825.13;5092785;28;20051;-64
2021/09/23 06:42:15;;;;;;;74.53;38.57;;;;;;;12.70;100.00;101809.66;5086137;28;20047;-62
2021/09/23 06:44:42;;;;;;;80.67;38.10;;;;;;;12.75;100.00;101815.31;5074553;28;20291;-63
2021/09/23 06:47:07;;;;;;;78.82;38.90;;;;;;;12.86;100.00;101816.69;5086271;28;20318;-63
2021/09/23 06:49:33;;;;;;;70.85;37.67;;;;;;;12.91;100.00;101816.94;5092458;28;20044;-63
2021/09/23 06:51:58;;;;;;;80.87;36.67;;;;;;;13.02;100.00;101824.53;5068017;28;20040;-63
2021/09/23 06:54:24;;;;;;;77.15;37.30;;;;;;;13.08;100.00;101822.13;5074332;28;20044;-62
2021/09/23 06:56:49;;;;;;;75.15;37.90;;;;;;;13.13;100.00;101811.66;5086498;28;20029;-63
2021/09/23 06:59:17;;;;;;;74.97;36.23;;;;;;;13.16;100.00;101817.47;5058094;28;20044;-63
2021/09/23 07:01:49;;;;;;;70.97;36.00;;;;;;;13.25;100.00;101812.84;5065140;28;20771;-62
2021/09/23 07:04:15;;;;;;;78.63;40.13;;;;;;;13.23;100.00;101809.50;5080105;28;20273;-63
2021/09/23 07:07:03;;;;;;;82.83;38.77;;;;;;;13.32;100.00;101802.97;5061341;28;20811;-62
2021/09/23 07:09:35;;;;;;;75.10;39.00;;;;;;;13.25;100.00;101785.13;5059093;28;20625;-63
2021/09/23 07:12:03;;;;;;;84.73;39.90;;;;;;;13.33;100.00;101793.09;5054578;28;20437;-63
2021/09/23 07:14:29;;;;;;;78.38;39.47;;;;;;;13.45;100.00;101793.44;5076249;28;20325;-63
2021/09/23 07:16:55;;;;;;;81.75;41.30;;;;;;;13.48;100.00;101798.44;5080848;28;20028;-61
2021/09/23 07:19:21;;;;;;;83.72;40.72;;;;;;;13.60;100.00;101802.25;5058001;28;20442;-63
2021/09/23 07:21:47;;;;;;;84.00;42.37;;;;;;;13.68;100.00;101798.63;5065837;28;20045;-63
2021/09/23 07:24:13;;;;;;;73.00;38.67;;;;;;;13.79;100.00;101801.81;5067006;28;20589;-63
2021/09/23 07:26:40;;;;;;;81.45;40.05;;;;;;;13.85;100.00;101803.72;5069026;28;20475;-65
2021/09/23 07:29:06;;;;;;;78.83;38.63;;;;;;;14.04;100.00;101805.75;5065849;28;20388;-61
2021/09/23 07:31:32;;;;;;;74.13;39.67;;;;;;;14.17;100.00;101804.19;5066272;28;20648;-62
2021/09/23 07:33:58;;;;;;;81.55;37.90;;;;;;;14.23;100.00;101805.25;5066702;28;20280;-62
2021/09/23 07:36:23;;;;;;;76.30;37.40;;;;;;;14.38;100.00;101800.63;5084559;28;20457;-62
2021/09/23 07:38:49;;;;;;;76.00;37.95;;;;;;;14.51;100.00;101799.03;5083323;28;20086;-62
2021/09/23 07:41:14;;;;;;;93.22;41.85;;;;;;;14.59;100.00;101786.22;5048898;28;20390;-62
2021/09/23 07:43:40;;;;;;;71.43;38.05;;;;;;;14.64;100.00;101782.94;5082785;28;20043;-62
2021/09/23 07:46:06;;;;;;;71.22;37.10;;;;;;;14.85;100.00;101771.25;5063599;28;20043;-63
2021/09/23 07:48:31;;;;;;;61.65;34.65;;;;;;;15.01;100.00;101774.63;5054889;28;20045;-62
2021/09/23 07:50:58;;;;;;;77.60;37.38;;;;;;;15.20;100.00;101773.88;5089957;28;20044;-63
2021/09/23 07:53:25;;;;;;;63.63;34.83;;;;;;;15.26;100.00;101763.31;5076098;28;20131;-62
2021/09/23 07:55:52;;;;;;;62.93;31.73;;;;;;;15.39;100.00;101776.81;5081790;28;20305;-63
2021/09/23 07:58:18;;;;;;;64.45;33.85;;;;;;;15.61;100.00;101761.28;5061588;28;20296;-62
2021/09/23 08:00:44;;;;;;;58.13;29.50;;;;;;;15.85;100.00;101750.09;5076263;28;20361;-62
2021/09/23 08:03:09;;;;;;;54.60;28.45;;;;;;;15.99;100.00;101738.25;5068568;28;20040;-63
2021/09/23 08:05:38;;;;;;;49.03;27.70;;;;;;;16.07;100.00;101729.13;5056592;28;20106;-63
2021/09/23 08:08:05;;;;;;;50.37;25.53;;;;;;;16.27;100.00;101710.19;5060430;28;20289;-62
2021/09/23 08:10:31;;;;;;;;;;;;;;;16.38;100.00;101710.56;5060047;28;20273;-63
2021/09/23 08:12:58;;;;;;;51.70;25.75;;;;;;;16.47;100.00;101720.91;5075279;28;19920;-58
2021/09/23 08:15:24;;;;;;;46.17;24.48;;;;;;;16.37;100.00;101720.53;5075972;28;20097;-62
2021/09/23 08:18:09;;;;;;;42.03;21.77;;;;;;;16.32;100.00;101715.78;5093378;28;20121;-64
2021/09/23 08:21:09;;;;;;;48.43;25.03;;;;;;;16.37;100.00;101704.31;5072630;28;20288;-63
2021/09/23 08:23:35;;;;;;;42.45;24.05;;;;;;;16.46;100.00;101711.16;5095814;28;20277;-62
2021/09/23 08:26:01;;;;;;;;;;;;;;;16.46;100.00;101703.06;5062768;28;20039;-63
2021/09/23 08:28:29;;;;;;;52.37;25.10;;;;;;;16.56;100.00;101701.78;5076399;28;20014;-62
2021/09/23 08:30:56;;;;;;;46.33;25.70;;;;;;;16.70;100.00;101703.38;5057828;28;20038;-62
2021/09/23 08:33:23;;;;;;;46.13;23.97;;;;;;;16.92;100.00;101697.66;5075281;28;20355;-64
2021/09/23 08:35:49;;;;;;;47.77;23.47;;;;;;;17.01;100.00;101714.47;5058658;28;20736;-64
2021/09/23 08:38:18;;;;;;;48.78;23.05;;;;;;;17.14;100.00;101727.88;5057625;28;20346;-61
2021/09/23 08:40:47;;;;;;;42.87;21.97;;;;;;;17.32;100.00;101735.25;5055439;28;20084;-62
2021/09/23 08:43:14;;;;;;;36.50;19.50;;;;;;;17.60;100.00;101747.53;5055867;28;20627;-66
2021/09/23 08:45:40;;;;;;;44.73;21.40;;;;;;;18.14;100.00;101738.13;5079812;28;20024;-64
2021/09/23 08:48:08;;;;;;;38.03;20.33;;;;;;;18.19;100.00;101751.81;5056990;28;20045;-63
2021/09/23 08:50:34;;;;;;;36.07;19.00;;;;;;;18.52;100.00;101739.75;5040524;28;20039;-64
2021/09/23 08:53:00;;;;;;;37.30;19.70;;;;;;;18.85;100.00;101743.09;5056493;28;20515;-65
2021/09/23 08:55:31;;;;;;;29.13;17.55;;;;;;;19.13;100.00;101749.84;5056495;28;20033;-63
2021/09/23 08:58:07;;;;;;;32.97;18.30;;;;;;;19.47;100.00;101750.19;5056663;28;20083;-63
2021/09/23 09:00:36;;;;;;;34.77;17.30;;;;;;;19.15;100.00;101753.97;5057651;28;20036;-64
2021/09/23 09:03:10;;;;;;;38.53;17.87;;;;;;;19.46;100.00;101762.09;5055991;28;20115;-63
2021/09/23 09:05:55;;;;;;;38.67;19.53;;;;;;;19.13;100.00;101753.38;5052424;28;20049;-65
2021/09/23 09:08:37;;;;;;;34.37;19.60;;;;;;;19.60;100.00;101755.38;5054017;28;20045;-64
2021/09/23 09:11:13;;;;;;;40.22;19.73;;;;;;;19.41;100.00;101748.41;5054111;28;20037;-64
2021/09/23 09:13:44;;;;;;;35.33;19.50;;;;;;;18.16;100.00;101752.25;5057770;28;20032;-65
2021/09/23 09:16:15;;;;;;;33.33;18.93;;;;;;;18.24;100.00;101753.84;5063288;28;20128;-65
2021/09/23 09:18:42;;;;;;;39.87;18.50;;;;;;;18.16;100.00;101746.84;5064558;28;20041;-65
2021/09/23 09:21:13;;;;;;;33.40;18.97;;;;;;;18.18;100.00;101753.69;5063585;28;20042;-63
2021/09/23 09:23:51;;;;;;;32.93;17.40;;;;;;;19.83;100.00;101748.31;5059183;28;20036;-63
2021/09/23 09:26:35;;;;;;;31.30;15.63;;;;;;;19.90;100.00;101756.34;5064204;28;20046;-60
2021/09/23 09:29:05;;;;;;;34.17;16.20;;;;;;;18.46;100.00;101757.78;5062869;28;20028;-64
2021/09/23 09:31:31;;;;;;;29.50;16.07;;;;;;;19.56;100.00;101742.53;5066188;28;20064;-63
2021/09/23 09:34:01;;;;;;;30.50;16.40;;;;;;;18.55;100.00;101739.31;5047794;28;20464;-64
2021/09/23 09:36:39;;;;;;;30.17;14.47;;;;;;;18.51;100.00;101750.84;5063338;28;20048;-63
2021/09/23 09:39:14;;;;;;;27.97;15.80;;;;;;;18.51;100.00;101727.28;5059737;28;20193;-62
2021/09/23 09:41:46;;;;;;;23.13;13.77;;;;;;;18.89;100.00;101719.91;5062509;28;20112;-63
2021/09/23 09:44:14;;;;;;;29.83;15.50;;;;;;;21.04;100.00;101718.78;5059519;28;20040;-65
2021/09/23 09:46:50;;;;;;;28.60;14.57;;;;;;;22.31;100.00;101718.50;5045015;28;20028;-64
2021/09/23 09:49:19;;;;;;;30.93;13.97;;;;;;;21.12;100.00;101723.00;5052218;28;20032;-65
2021/09/23 09:51:58;;;;;;;28.23;12.97;;;;;;;20.74;100.00;101708.16;5061454;28;20125;-62
2021/09/23 09:54:25;;;;;;;22.80;12.83;;;;;;;21.35;100.00;101719.31;5059553;28;20060;-63
2021/09/23 09:57:04;;;;;;;20.90;12.48;;;;;;;22.24;100.00;101709.72;5061446;28;20457;-63
2021/09/23 09:59:32;;;;;;;21.67;12.17;;;;;;;22.01;100.00;101715.13;5061410;28;20106;-64
2021/09/23 10:01:59;;;;;;;18.75;11.45;;;;;;;22.63;100.00;101712.41;5061679;28;20487;-65
2021/09/23 10:04:28;;;;;;;20.60;11.27;;;;;;;22.04;100.00;101719.25;5060521;28;20360;-65
2021/09/23 10:07:02;;;;;;;22.57;11.27;;;;;;;23.08;100.00;101732.19;5055634;28;20055;-64
2021/09/23 10:09:31;;;;;;;17.80;9.10;;;;;;;22.77;100.00;101721.78;5064192;28;20047;-65
2021/09/23 10:11:59;;;;;;;23.20;11.10;;;;;;;22.48;100.00;101729.38;5066691;28;20499;-65
2021/09/23 10:14:26;;;;;;;17.90;8.80;;;;;;;22.78;100.00;101709.00;5070645;28;20051;-64
2021/09/23 10:16:53;;;;;;;19.20;9.40;;;;;;;23.11;100.00;101714.50;5073240;28;20037;-64
2021/09/23 10:19:21;;;;;;;21.60;8.73;;;;;;;22.70;100.00;101714.91;5057681;28;20073;-63
2021/09/23 10:21:47;;;;;;;22.33;9.37;;;;;;;22.89;100.00;101718.91;5064426;28;20040;-64
2021/09/23 10:24:14;;;;;;;18.83;8.95;;;;;;;22.78;100.00;101722.63;5055716;28;20094;-64
2021/09/23 10:26:44;;;;;;;14.43;7.43;;;;;;;20.84;100.00;101715.69;5065892;28;20032;-64
2021/09/23 10:29:12;;;;;;;15.80;7.73;;;;;;;20.61;100.00;101729.09;5062848;28;20093;-63
2021/09/23 10:31:38;;;;;;;16.07;7.53;;;;;;;21.79;100.00;101720.56;5072600;28;20033;-65
2021/09/23 10:34:06;;;;;;;12.65;7.15;;;;;;;21.31;100.00;101722.75;5072184;28;20045;-64
2021/09/23 10:36:35;;;;;;;17.07;7.93;;;;;;;20.67;100.00;101712.91;5072193;28;20025;-64
2021/09/23 10:39:05;;;;;;;23.77;8.67;;;;;;;20.16;100.00;101714.34;5055288;28;20460;-65
2021/09/23 10:41:36;;;;;;;15.87;7.47;;;;;;;20.02;100.00;101718.34;5063273;28;20380;-64
2021/09/23 10:44:03;;;;;;;21.83;9.50;;;;;;;20.29;100.00;101717.84;5074006;28;20047;-64
2021/09/23 10:46:29;;;;;;;17.17;7.90;;;;;;;20.35;100.00;101701.41;5077260;28;20024;-63
2021/09/23 10:48:56;;;;;;;;;;;;;;;19.92;100.00;101719.78;5077934;28;20076;-64
2021/09/23 10:51:24;;;;;;;16.77;5.20;;;;;;;20.37;100.00;101712.06;5059458;28;19915;-64
2021/09/23 10:54:05;;;;;;;17.57;4.70;;;;;;;20.17;100.00;101726.84;5075043;28;20384;-64
2021/09/23 10:56:33;;;;;;;9.50;3.80;;;;;;;19.92;100.00;101727.94;5074983;28;20435;-64
2021/09/23 10:59:01;;;;;;;10.33;3.87;;;;;;;19.68;100.00;101720.84;5061543;28;20495;-63
2021/09/23 11:01:36;;;;;;;12.27;5.07;;;;;;;19.57;100.00;101717.03;5055096;28;20041;-63
2021/09/23 11:04:03;;;;;;;16.57;6.27;;;;;;;19.71;100.00;101731.22;5054651;28;20037;-64
2021/09/23 11:06:41;;;;;;;18.93;7.57;;;;;;;19.88;100.00;101707.72;5053874;28;20069;-64
2021/09/23 11:09:35;;;;;;;15.20;6.43;;;;;;;19.60;100.00;101720.09;5053925;28;20477;-63